createdAt,value
2023-03-31T00:01:42.778Z,6.40
2023-03-31T00:04:14.877Z,9.30
2023-03-31T00:06:46.280Z,10.50
2023-03-31T00:09:19.077Z,6.70
2023-03-31T00:11:51.241Z,7.90
2023-03-31T00:14:23.614Z,8.60
2023-03-31T00:16:54.886Z,7.00
2023-03-31T00:19:29.210Z,7.60
2023-03-31T00:22:02.273Z,6.60
2023-03-31T00:24:33.793Z,9.50
2023-03-31T00:27:06.458Z,5.10
2023-03-31T00:29:41.331Z,5.30
2023-03-31T00:32:14.855Z,6.00
2023-03-31T00:34:46.688Z,7.20
2023-03-31T00:37:17.700Z,6.40
2023-03-31T00:39:51.957Z,5.70
2023-03-31T00:42:24.043Z,6.50
2023-03-31T00:45:28.302Z,5.90
2023-03-31T00:48:06.188Z,7.00
2023-03-31T00:50:49.476Z,7.20
2023-03-31T00:53:24.709Z,6.00
2023-03-31T00:56:00.505Z,5.20
2023-03-31T00:58:33.461Z,8.80
2023-03-31T01:01:06.088Z,8.00
2023-03-31T01:03:38.790Z,7.10
2023-03-31T01:06:11.490Z,5.90
2023-03-31T01:08:43.446Z,7.20
2023-03-31T01:11:17.643Z,7.40
2023-03-31T01:13:52.939Z,8.20
2023-03-31T01:16:24.586Z,7.30
2023-03-31T01:18:57.730Z,6.80
2023-03-31T01:21:57.141Z,7.40
2023-03-31T01:25:01.861Z,7.70
2023-03-31T01:27:54.249Z,6.50
2023-03-31T01:31:04.889Z,5.80
2023-03-31T01:34:00.988Z,9.70
2023-03-31T01:36:58.756Z,5.90
2023-03-31T01:40:02.186Z,8.50
2023-03-31T01:42:38.599Z,8.70
2023-03-31T01:45:21.772Z,6.50
2023-03-31T01:47:59.269Z,6.00
2023-03-31T01:50:36.808Z,7.70
2023-03-31T01:53:17.006Z,6.10
2023-03-31T01:55:55.189Z,7.00
2023-03-31T01:58:32.426Z,6.50
2023-03-31T02:01:09.775Z,6.00
2023-03-31T02:03:47.114Z,6.50
2023-03-31T02:06:24.692Z,6.40
2023-03-31T02:08:59.634Z,8.10
2023-03-31T02:11:33.136Z,6.50
2023-03-31T02:14:09.596Z,6.20
2023-03-31T02:16:47.478Z,7.40
2023-03-31T02:19:23.452Z,6.60
2023-03-31T02:21:57.027Z,6.20
2023-03-31T02:24:30.644Z,5.90
2023-03-31T02:27:08.398Z,6.20
2023-03-31T02:29:39.999Z,6.20
2023-03-31T02:32:18.770Z,7.00
2023-03-31T02:34:50.339Z,6.50
2023-03-31T02:37:21.868Z,6.10
2023-03-31T02:39:55.307Z,5.80
2023-03-31T02:42:26.924Z,7.20
2023-03-31T02:45:05.388Z,5.60
2023-03-31T02:47:37.191Z,6.80
2023-03-31T02:50:11.058Z,8.40
2023-03-31T02:52:58.679Z,5.30
2023-03-31T02:55:49.094Z,6.80
2023-03-31T02:58:56.075Z,5.20
2023-03-31T03:01:41.754Z,5.90
2023-03-31T03:04:29.872Z,6.10
2023-03-31T03:07:10.434Z,8.00
2023-03-31T03:09:55.122Z,4.40
2023-03-31T03:12:34.188Z,5.40
2023-03-31T03:15:12.224Z,6.00
2023-03-31T03:17:45.890Z,7.80
2023-03-31T03:20:21.767Z,5.70
2023-03-31T03:22:54.038Z,7.40
2023-03-31T03:25:25.794Z,7.20
2023-03-31T03:27:57.551Z,4.10
2023-03-31T03:30:28.434Z,4.30
2023-03-31T03:33:00.190Z,6.80
2023-03-31T03:35:31.840Z,7.10
2023-03-31T03:38:03.425Z,7.70
2023-03-31T03:40:34.688Z,6.30
2023-03-31T03:43:08.105Z,6.60
2023-03-31T03:45:39.827Z,6.30
2023-03-31T03:48:11.304Z,5.50
2023-03-31T03:50:42.513Z,5.60
2023-03-31T03:53:14.677Z,7.20
2023-03-31T03:55:49.030Z,8.40
2023-03-31T03:58:20.629Z,6.40
2023-03-31T04:00:51.807Z,6.50
2023-03-31T04:03:23.863Z,5.90
2023-03-31T04:05:54.908Z,5.40
2023-03-31T04:08:26.662Z,7.20
2023-03-31T04:10:58.461Z,5.10
2023-03-31T04:13:29.952Z,5.10
2023-03-31T04:16:01.733Z,4.90
2023-03-31T04:18:32.781Z,7.30
2023-03-31T04:21:05.169Z,4.70
2023-03-31T04:23:38.569Z,4.70
2023-03-31T04:26:10.062Z,6.60
2023-03-31T04:28:42.984Z,8.50
2023-03-31T04:31:16.674Z,6.10
2023-03-31T04:33:48.208Z,7.10
2023-03-31T04:36:19.425Z,5.90
2023-03-31T04:38:55.081Z,5.10
2023-03-31T04:41:28.528Z,5.30
2023-03-31T04:43:59.988Z,6.40
2023-03-31T04:46:31.056Z,8.00
2023-03-31T04:49:03.079Z,5.30
2023-03-31T04:51:34.225Z,4.60
2023-03-31T04:54:05.347Z,6.40
2023-03-31T04:56:36.474Z,6.30
2023-03-31T04:59:08.861Z,6.20
2023-03-31T05:01:45.891Z,7.10
2023-03-31T05:04:16.891Z,7.70
2023-03-31T05:06:48.163Z,6.40
2023-03-31T05:09:20.850Z,6.00
2023-03-31T05:11:52.571Z,6.20
2023-03-31T05:14:23.734Z,5.00
2023-03-31T05:16:58.253Z,6.30
2023-03-31T05:19:29.642Z,7.20
2023-03-31T05:22:00.957Z,6.30
2023-03-31T05:24:32.278Z,6.50
2023-03-31T05:27:03.553Z,6.80
2023-03-31T05:29:34.792Z,7.00
2023-03-31T05:32:06.682Z,4.70
2023-03-31T05:34:38.219Z,8.10
2023-03-31T05:37:09.466Z,6.60
2023-03-31T05:39:40.428Z,6.50
2023-03-31T05:42:12.213Z,6.30
2023-03-31T05:44:43.639Z,6.80
2023-03-31T05:47:15.433Z,7.80
2023-03-31T05:49:47.014Z,5.70
2023-03-31T05:52:18.304Z,8.20
2023-03-31T05:54:49.626Z,7.20
2023-03-31T05:57:21.425Z,6.60
2023-03-31T05:59:53.304Z,7.10
2023-03-31T06:02:24.629Z,10.70
2023-03-31T06:04:56.246Z,6.50
2023-03-31T06:07:28.188Z,6.20
2023-03-31T06:09:59.368Z,6.50
2023-03-31T06:12:30.914Z,9.90
2023-03-31T06:15:01.935Z,8.60
2023-03-31T06:17:33.444Z,7.60
2023-03-31T06:20:15.949Z,10.50
2023-03-31T06:22:56.125Z,6.40
2023-03-31T06:25:29.263Z,8.80
2023-03-31T06:28:04.056Z,6.30
2023-03-31T06:30:35.931Z,6.50
2023-03-31T06:33:08.090Z,10.80
2023-03-31T06:35:42.367Z,8.10
2023-03-31T06:38:13.710Z,11.80
2023-03-31T06:40:45.060Z,7.70
2023-03-31T06:43:16.358Z,7.20
2023-03-31T06:45:47.923Z,7.00
2023-03-31T06:48:19.254Z,7.40
2023-03-31T06:50:50.501Z,10.70
2023-03-31T06:53:22.446Z,8.10
2023-03-31T06:55:53.514Z,7.90
2023-03-31T06:58:25.062Z,8.20
2023-03-31T07:00:56.447Z,10.40
2023-03-31T07:03:29.734Z,8.20
2023-03-31T07:06:01.427Z,8.90
2023-03-31T07:08:32.979Z,8.40
2023-03-31T07:11:05.001Z,7.70
2023-03-31T07:13:36.984Z,9.30
2023-03-31T07:16:10.131Z,6.90
2023-03-31T07:18:42.326Z,8.90
2023-03-31T07:21:14.176Z,7.20
2023-03-31T07:23:46.505Z,9.00
2023-03-31T07:26:17.962Z,11.30
2023-03-31T07:28:49.295Z,12.60
2023-03-31T07:31:20.963Z,10.50
2023-03-31T07:33:52.739Z,10.80
2023-03-31T07:36:24.225Z,7.30
2023-03-31T07:38:55.566Z,10.00
2023-03-31T07:41:27.096Z,7.20
2023-03-31T07:43:58.390Z,8.80
2023-03-31T07:46:30.535Z,10.30
2023-03-31T07:49:03.386Z,7.30
2023-03-31T07:51:34.808Z,8.10
2023-03-31T07:54:06.221Z,11.40
2023-03-31T07:56:37.228Z,9.40
2023-03-31T07:59:08.308Z,10.50
2023-03-31T08:01:39.933Z,10.70
2023-03-31T08:04:13.530Z,10.90
2023-03-31T08:06:44.761Z,9.90
2023-03-31T08:09:16.712Z,9.50
2023-03-31T08:11:48.225Z,10.20
2023-03-31T08:14:30.295Z,10.70
2023-03-31T08:17:02.105Z,9.20
2023-03-31T08:19:33.255Z,7.90
2023-03-31T08:22:04.696Z,8.70
2023-03-31T08:24:35.856Z,9.70
2023-03-31T08:27:11.994Z,7.40
2023-03-31T08:29:43.448Z,6.30
2023-03-31T08:32:14.879Z,7.40
2023-03-31T08:34:46.414Z,7.50
2023-03-31T08:37:17.498Z,7.60
2023-03-31T08:39:48.626Z,7.30
2023-03-31T08:42:27.602Z,9.50
2023-03-31T08:45:04.982Z,8.60
2023-03-31T08:47:38.219Z,10.10
2023-03-31T08:50:14.410Z,8.40
2023-03-31T08:52:50.503Z,8.90
2023-03-31T08:55:26.960Z,7.70
2023-03-31T08:58:03.088Z,8.60
2023-03-31T09:00:47.860Z,8.20
2023-03-31T09:03:27.287Z,8.40
2023-03-31T09:06:04.287Z,12.10
2023-03-31T09:08:42.481Z,11.00
2023-03-31T09:11:23.126Z,9.10
2023-03-31T09:14:26.929Z,6.90
2023-03-31T09:17:14.072Z,7.90
2023-03-31T09:19:51.272Z,6.00
2023-03-31T09:22:27.354Z,10.40
2023-03-31T09:25:05.232Z,6.20
2023-03-31T09:27:38.251Z,9.30
2023-03-31T09:30:16.711Z,10.90
2023-03-31T09:32:49.564Z,11.10
2023-03-31T09:35:23.305Z,10.70
2023-03-31T09:37:55.478Z,11.60
2023-03-31T09:40:29.189Z,8.30
2023-03-31T09:43:04.941Z,7.30
2023-03-31T09:45:37.400Z,8.50
2023-03-31T09:48:15.581Z,8.40
2023-03-31T09:50:50.467Z,9.60
2023-03-31T09:53:30.505Z,9.40
2023-03-31T09:56:05.430Z,8.90
2023-03-31T09:58:43.894Z,9.60
2023-03-31T10:01:16.669Z,8.20
2023-03-31T10:03:54.017Z,10.80
2023-03-31T10:06:26.663Z,9.80
2023-03-31T10:09:01.596Z,8.40
2023-03-31T10:11:33.485Z,8.30
2023-03-31T10:14:06.500Z,8.80
2023-03-31T10:16:45.398Z,8.10
2023-03-31T10:19:22.866Z,10.00
2023-03-31T10:22:00.022Z,10.00
2023-03-31T10:24:40.185Z,11.20
2023-03-31T10:27:23.692Z,9.70
2023-03-31T10:29:57.525Z,10.20
2023-03-31T10:32:31.059Z,9.70
2023-03-31T10:35:07.878Z,9.00
2023-03-31T10:37:40.149Z,8.90
2023-03-31T10:40:21.077Z,9.40
2023-03-31T10:43:03.102Z,10.80
2023-03-31T10:45:43.284Z,10.60
2023-03-31T10:48:25.443Z,9.30
2023-03-31T10:51:00.260Z,10.70
2023-03-31T10:53:31.610Z,9.80
2023-03-31T10:56:14.736Z,8.40
2023-03-31T10:59:05.735Z,11.00
2023-03-31T11:01:52.222Z,9.60
2023-03-31T11:04:47.728Z,9.30
2023-03-31T11:07:32.594Z,13.30
2023-03-31T11:10:22.244Z,12.40
2023-03-31T11:12:59.860Z,13.40
2023-03-31T11:15:37.843Z,8.30
2023-03-31T11:18:26.865Z,7.60
2023-03-31T11:21:07.769Z,10.10
2023-03-31T11:23:52.341Z,7.80
2023-03-31T11:26:31.120Z,11.30
2023-03-31T11:29:13.018Z,10.50
2023-03-31T11:31:52.752Z,10.50
2023-03-31T11:34:55.475Z,12.50
2023-03-31T11:37:45.983Z,11.10
2023-03-31T11:40:45.862Z,10.10
2023-03-31T11:43:24.759Z,11.40
2023-03-31T11:46:02.675Z,11.10
2023-03-31T11:48:44.980Z,10.80
2023-03-31T11:51:21.128Z,11.60
2023-03-31T11:53:55.727Z,16.40
2023-03-31T11:56:32.609Z,9.00
2023-03-31T11:59:05.870Z,6.90
2023-03-31T12:01:44.274Z,12.10
2023-03-31T12:04:27.317Z,8.60
2023-03-31T12:07:04.177Z,8.60
2023-03-31T12:09:39.709Z,12.10
2023-03-31T12:12:17.088Z,9.00
2023-03-31T12:14:54.535Z,9.00
2023-03-31T12:17:29.642Z,7.40
2023-03-31T12:20:09.393Z,8.50
2023-03-31T12:22:44.878Z,8.10
2023-03-31T12:25:23.265Z,11.30
2023-03-31T12:27:55.174Z,14.30
2023-03-31T12:30:34.652Z,10.40
2023-03-31T12:33:09.163Z,8.40
2023-03-31T12:35:52.809Z,10.00
2023-03-31T12:38:36.486Z,8.70
2023-03-31T12:41:16.323Z,11.80
2023-03-31T12:44:04.894Z,10.80
2023-03-31T12:46:54.241Z,10.00
2023-03-31T12:49:43.116Z,10.20
2023-03-31T12:52:19.614Z,10.20
2023-03-31T12:55:23.428Z,8.60
2023-03-31T12:57:55.073Z,10.10
2023-03-31T13:00:30.188Z,9.80
2023-03-31T13:03:28.825Z,13.40
2023-03-31T13:05:59.994Z,8.00
2023-03-31T13:08:54.746Z,11.10
2023-03-31T13:11:40.021Z,11.50
2023-03-31T13:14:20.891Z,12.00
2023-03-31T13:16:55.572Z,12.00
2023-03-31T13:19:34.546Z,13.50
2023-03-31T13:22:07.409Z,11.40
2023-03-31T13:24:38.663Z,10.90
2023-03-31T13:27:34.486Z,13.60
2023-03-31T13:30:07.808Z,11.20
2023-03-31T13:32:40.535Z,14.70
2023-03-31T13:35:20.008Z,11.10
2023-03-31T13:38:11.022Z,15.30
2023-03-31T13:41:02.770Z,13.70
2023-03-31T13:44:10.087Z,15.20
2023-03-31T13:47:02.620Z,16.00
2023-03-31T13:49:55.458Z,13.70
2023-03-31T13:52:41.001Z,12.70
2023-03-31T13:55:45.410Z,11.90
2023-03-31T13:58:44.235Z,14.00
2023-03-31T14:01:42.232Z,13.50
2023-03-31T14:04:30.065Z,14.90
2023-03-31T14:07:03.771Z,12.70
2023-03-31T14:09:36.922Z,13.30
2023-03-31T14:15:19.108Z,11.90
2023-03-31T14:17:51.068Z,18.40
2023-03-31T14:20:43.842Z,11.70
2023-03-31T14:23:26.382Z,12.80
2023-03-31T14:26:06.268Z,14.40
2023-03-31T14:28:54.661Z,14.20
2023-03-31T14:31:35.686Z,10.50
2023-03-31T14:34:37.113Z,10.20
2023-03-31T14:37:11.850Z,12.60
2023-03-31T14:39:45.947Z,11.30
2023-03-31T14:42:19.756Z,12.20
2023-03-31T14:44:56.794Z,12.80
2023-03-31T14:47:30.500Z,13.20
2023-03-31T14:50:09.213Z,14.20
2023-03-31T14:52:41.060Z,8.40
2023-03-31T14:55:20.066Z,12.50
2023-03-31T14:57:54.921Z,10.00
2023-03-31T15:00:30.319Z,8.60
2023-03-31T15:03:04.905Z,8.60
2023-03-31T15:05:39.533Z,12.30
2023-03-31T15:08:18.106Z,9.50
2023-03-31T15:10:58.936Z,16.50
2023-03-31T15:13:40.950Z,12.10
2023-03-31T15:16:36.406Z,15.20
2023-03-31T15:19:16.604Z,12.90
2023-03-31T15:21:55.182Z,11.20
2023-03-31T15:24:27.654Z,15.30
2023-03-31T15:27:04.282Z,13.10
2023-03-31T15:29:40.322Z,11.30
2023-03-31T15:32:17.722Z,11.60
2023-03-31T15:34:49.703Z,10.70
2023-03-31T15:37:27.976Z,13.80
2023-03-31T15:40:05.239Z,19.20
2023-03-31T15:42:39.365Z,15.80
2023-03-31T15:45:50.051Z,14.30
2023-03-31T15:48:33.625Z,17.10
2023-03-31T15:51:18.513Z,14.70
2023-03-31T15:53:53.462Z,16.50
2023-03-31T15:56:43.949Z,14.50
2023-03-31T15:59:34.322Z,10.60
2023-03-31T16:02:16.320Z,11.00
2023-03-31T16:04:52.094Z,12.40
2023-03-31T16:07:27.513Z,14.50
2023-03-31T16:10:02.161Z,16.60
2023-03-31T16:12:37.284Z,13.90
2023-03-31T16:15:14.341Z,14.00
2023-03-31T16:17:54.133Z,13.10
2023-03-31T16:20:30.365Z,12.50
2023-03-31T16:23:03.890Z,15.20
2023-03-31T16:25:40.456Z,17.30
2023-03-31T16:28:18.420Z,15.80
2023-03-31T16:30:50.499Z,16.60
2023-03-31T16:33:24.868Z,17.40
2023-03-31T16:35:58.898Z,15.50
2023-03-31T16:38:31.607Z,14.70
2023-03-31T16:41:03.167Z,14.60
2023-03-31T16:43:35.947Z,15.10
2023-03-31T16:46:08.082Z,15.10
2023-03-31T16:48:39.708Z,14.90
2023-03-31T16:51:11.903Z,12.10
2023-03-31T16:53:57.545Z,12.00
2023-03-31T16:56:30.928Z,12.90
2023-03-31T16:59:03.855Z,10.40
2023-03-31T17:01:36.408Z,11.80
2023-03-31T17:04:08.546Z,10.10
2023-03-31T17:06:40.245Z,12.60
2023-03-31T17:09:12.361Z,11.00
2023-03-31T17:11:43.682Z,13.20
2023-03-31T17:14:15.182Z,17.00
2023-03-31T17:16:48.471Z,11.90
2023-03-31T17:19:22.762Z,11.90
2023-03-31T17:21:55.263Z,11.50
2023-03-31T17:24:27.599Z,11.70
2023-03-31T17:26:59.303Z,13.00
2023-03-31T17:29:30.871Z,11.60
2023-03-31T17:32:02.472Z,12.80
2023-03-31T17:34:34.667Z,13.00
2023-03-31T17:37:07.065Z,13.60
2023-03-31T17:39:38.514Z,18.70
2023-03-31T17:42:10.316Z,14.90
2023-03-31T17:44:42.521Z,18.60
2023-03-31T17:47:13.994Z,16.90
2023-03-31T17:49:45.128Z,18.70
2023-03-31T17:52:17.093Z,19.90
2023-03-31T17:54:50.674Z,15.00
2023-03-31T17:57:22.729Z,15.00
2023-03-31T17:59:54.485Z,14.40
2023-03-31T18:02:26.131Z,13.10
2023-03-31T18:04:58.398Z,10.80
2023-03-31T18:07:30.216Z,11.20
2023-03-31T18:10:05.446Z,9.40
2023-03-31T18:12:37.960Z,16.10
2023-03-31T18:15:11.818Z,12.50
2023-03-31T18:17:44.696Z,12.30
2023-03-31T18:20:16.898Z,13.50
2023-03-31T18:22:48.249Z,11.50
2023-03-31T18:25:19.431Z,14.50
2023-03-31T18:27:50.936Z,14.40
2023-03-31T18:30:22.816Z,11.70
2023-03-31T18:32:54.829Z,9.70
2023-03-31T18:35:27.483Z,9.70
2023-03-31T18:37:59.088Z,9.50
2023-03-31T18:40:30.864Z,13.60
2023-03-31T18:43:02.819Z,12.50
2023-03-31T18:45:35.027Z,11.20
2023-03-31T18:48:06.762Z,9.30
2023-03-31T18:50:38.313Z,10.20
2023-03-31T18:53:09.817Z,10.10
2023-03-31T18:55:41.160Z,10.30
2023-03-31T18:58:13.618Z,11.90
2023-03-31T19:00:45.473Z,11.00
2023-03-31T19:03:17.621Z,10.50
2023-03-31T19:05:49.774Z,9.50
2023-03-31T19:08:22.036Z,10.80
2023-03-31T19:10:53.871Z,8.10
2023-03-31T19:13:25.005Z,10.00
2023-03-31T19:15:56.440Z,10.10
2023-03-31T19:18:28.544Z,12.10
2023-03-31T19:21:00.521Z,14.60
2023-03-31T19:23:33.118Z,10.20
2023-03-31T19:26:05.194Z,10.60
2023-03-31T19:28:37.379Z,11.60
2023-03-31T19:31:09.073Z,13.90
2023-03-31T19:33:41.003Z,11.10
2023-03-31T19:36:13.524Z,8.70
2023-03-31T19:38:45.341Z,12.70
2023-03-31T19:41:18.449Z,12.70
2023-03-31T19:43:50.414Z,11.50
2023-03-31T19:46:21.486Z,12.70
2023-03-31T19:48:52.916Z,11.90
2023-03-31T19:51:24.614Z,13.30
2023-03-31T19:53:57.077Z,16.00
2023-03-31T19:56:28.766Z,14.20
2023-03-31T19:59:00.543Z,14.80
2023-03-31T20:01:31.982Z,13.60
2023-03-31T20:04:03.966Z,14.50
2023-03-31T20:06:37.509Z,12.60
2023-03-31T20:09:09.261Z,11.00
2023-03-31T20:11:43.635Z,11.10
2023-03-31T20:14:15.798Z,12.00
2023-03-31T20:16:48.055Z,11.50
2023-03-31T20:19:20.291Z,17.50
2023-03-31T20:21:56.091Z,16.20
2023-03-31T20:24:29.567Z,17.40
2023-03-31T20:27:01.689Z,15.40
2023-03-31T20:29:33.152Z,13.60
2023-03-31T20:32:05.922Z,13.30
2023-03-31T20:34:37.380Z,13.70
2023-03-31T20:37:09.102Z,15.00
2023-03-31T20:39:41.286Z,10.70
2023-03-31T20:42:13.352Z,12.10
2023-03-31T20:44:44.965Z,11.00
2023-03-31T20:47:16.192Z,14.80
2023-03-31T20:49:49.453Z,12.10
2023-03-31T20:52:20.972Z,16.00
2023-03-31T20:54:52.390Z,13.40
2023-03-31T20:57:24.527Z,12.40
2023-03-31T20:59:57.404Z,13.30
2023-03-31T21:02:29.527Z,10.90
2023-03-31T21:05:01.985Z,10.10
2023-03-31T21:07:34.299Z,12.10
2023-03-31T21:10:06.250Z,11.00
2023-03-31T21:12:38.113Z,11.90
2023-03-31T21:15:12.582Z,11.30
2023-03-31T21:17:44.082Z,11.10
2023-03-31T21:20:15.960Z,12.90
2023-03-31T21:22:47.404Z,12.10
2023-03-31T21:25:19.085Z,14.50
2023-03-31T21:27:51.081Z,11.00
2023-03-31T21:30:28.580Z,14.20
2023-03-31T21:33:00.303Z,13.70
2023-03-31T21:35:32.516Z,11.40
2023-03-31T21:38:05.239Z,11.10
2023-03-31T21:40:37.845Z,12.70
2023-03-31T21:43:10.197Z,13.10
2023-03-31T21:45:43.119Z,15.10
2023-03-31T21:48:15.410Z,13.20
2023-03-31T21:50:48.380Z,13.90
2023-03-31T21:53:20.192Z,11.50
2023-03-31T21:56:00.735Z,10.90
2023-03-31T21:58:36.147Z,12.70
2023-03-31T22:01:08.517Z,12.70
2023-03-31T22:03:42.518Z,13.30
2023-03-31T22:06:13.812Z,13.20
2023-03-31T22:08:45.137Z,12.20
2023-03-31T22:11:17.262Z,13.10
2023-03-31T22:13:49.467Z,13.70
2023-03-31T22:16:23.368Z,15.60
2023-03-31T22:18:55.605Z,10.70
2023-03-31T22:21:45.373Z,12.00
2023-03-31T22:24:17.274Z,10.80
2023-03-31T22:26:48.937Z,12.20
2023-03-31T22:29:20.383Z,9.10
2023-03-31T22:31:52.928Z,10.20
2023-03-31T22:34:24.796Z,10.10
2023-03-31T22:36:57.664Z,11.30
2023-03-31T22:39:29.837Z,12.40
2023-03-31T22:42:01.015Z,10.70
2023-03-31T22:44:33.330Z,9.60
2023-03-31T22:47:04.992Z,10.50
2023-03-31T22:49:36.716Z,11.60
2023-03-31T22:52:09.364Z,11.20
2023-03-31T22:54:41.383Z,9.10
2023-03-31T22:57:13.608Z,9.70
2023-03-31T22:59:45.976Z,10.50
2023-03-31T23:02:19.395Z,10.80
2023-03-31T23:04:50.918Z,10.70
2023-03-31T23:07:23.333Z,9.90
2023-03-31T23:09:55.479Z,9.30
2023-03-31T23:12:29.739Z,11.40
2023-03-31T23:15:01.732Z,9.90
2023-03-31T23:17:34.189Z,11.60
2023-03-31T23:20:07.789Z,10.40
2023-03-31T23:22:39.526Z,9.30
2023-03-31T23:25:11.900Z,12.90
2023-03-31T23:27:43.865Z,8.40
2023-03-31T23:30:17.660Z,10.30
2023-03-31T23:32:49.118Z,8.90
2023-03-31T23:35:20.766Z,9.10
2023-03-31T23:37:52.292Z,7.20
2023-03-31T23:40:23.761Z,8.40
2023-03-31T23:42:55.415Z,8.10
2023-03-31T23:45:26.765Z,9.80
2023-03-31T23:47:58.900Z,9.90
2023-03-31T23:50:30.280Z,8.50
2023-03-31T23:53:02.370Z,9.80
2023-03-31T23:55:34.152Z,8.30
2023-03-31T23:58:09.248Z,9.90
